createdAt,value
2018-02-19T00:00:52.699Z,28.33
2018-02-19T00:03:20.241Z,27.98
2018-02-19T00:05:47.809Z,30.20
2018-02-19T00:08:15.349Z,25.42
2018-02-19T00:10:42.913Z,28.92
2018-02-19T00:13:10.449Z,29.85
2018-02-19T00:15:38.784Z,27.62
2018-02-19T00:18:06.325Z,26.55
2018-02-19T00:20:33.894Z,25.05
2018-02-19T00:23:01.433Z,24.42
2018-02-19T00:25:29.042Z,26.33
2018-02-19T00:27:56.573Z,27.35
2018-02-19T00:30:24.152Z,26.37
2018-02-19T00:32:51.697Z,22.48
2018-02-19T00:35:19.251Z,29.55
2018-02-19T00:37:47.599Z,30.35
2018-02-19T00:40:15.138Z,30.23
2018-02-19T00:42:42.694Z,27.33
2018-02-19T00:45:10.225Z,27.00
2018-02-19T00:47:38.568Z,30.23
2018-02-19T00:50:06.110Z,29.50
2018-02-19T00:52:33.664Z,29.95
2018-02-19T00:55:01.222Z,29.15
2018-02-19T00:57:28.770Z,26.55
2018-02-19T00:59:56.321Z,25.62
2018-02-19T01:02:23.894Z,30.42
2018-02-19T01:04:51.436Z,27.10
2018-02-19T01:07:18.993Z,28.25
2018-02-19T01:09:47.295Z,26.23
2018-02-19T01:12:14.869Z,29.35
2018-02-19T01:14:42.401Z,28.33
2018-02-19T01:17:09.971Z,27.73
2018-02-19T01:19:37.516Z,24.35
2018-02-19T01:22:05.049Z,19.70
2018-02-19T01:24:32.621Z,19.77
2018-02-19T01:27:00.951Z,23.95
2018-02-19T01:29:28.513Z,22.00
2018-02-19T01:31:56.073Z,23.73
2018-02-19T01:34:24.380Z,21.75
2018-02-19T01:36:51.954Z,19.48
2018-02-19T01:39:19.491Z,15.52
2018-02-19T01:41:47.049Z,17.62
2018-02-19T01:44:14.607Z,14.27
2018-02-19T01:46:42.192Z,13.27
2018-02-19T01:49:09.733Z,14.82
2018-02-19T01:51:37.291Z,17.83
2018-02-19T01:54:04.840Z,22.52
2018-02-19T01:56:32.399Z,23.15
2018-02-19T01:58:59.934Z,21.33
2018-02-19T02:01:28.258Z,24.50
2018-02-19T02:03:55.795Z,29.08
2018-02-19T02:06:23.354Z,26.12
2018-02-19T02:08:50.908Z,29.02
2018-02-19T02:11:18.487Z,31.58
2018-02-19T02:13:46.049Z,28.87
2018-02-19T02:16:13.609Z,27.73
2018-02-19T02:18:41.169Z,25.90
2018-02-19T02:21:08.722Z,25.95
2018-02-19T02:23:36.290Z,27.67
2018-02-19T02:26:03.847Z,30.80
2018-02-19T02:28:31.411Z,26.80
2018-02-19T02:30:58.949Z,29.77
2018-02-19T02:33:26.495Z,28.60
2018-02-19T02:35:54.810Z,32.38
2018-02-19T02:38:22.375Z,26.67
2018-02-19T02:40:49.921Z,31.55
2018-02-19T02:43:17.473Z,24.17
2018-02-19T02:45:45.061Z,25.90
2018-02-19T02:48:12.642Z,25.10
2018-02-19T02:50:40.232Z,27.48
2018-02-19T02:53:08.584Z,30.25
2018-02-19T02:55:36.131Z,32.85
2018-02-19T02:58:03.713Z,32.00
2018-02-19T03:00:31.273Z,29.23
2018-02-19T03:02:58.821Z,31.30
2018-02-19T03:05:26.396Z,29.70
2018-02-19T03:07:53.970Z,30.37
2018-02-19T03:10:22.298Z,27.23
2018-02-19T03:12:49.846Z,27.67
2018-02-19T03:15:17.436Z,25.50
2018-02-19T03:17:44.997Z,27.02
2018-02-19T03:20:12.600Z,27.42
2018-02-19T03:22:40.149Z,26.62
2018-02-19T03:25:08.475Z,26.75
2018-02-19T03:27:36.012Z,30.17
2018-02-19T03:30:03.554Z,25.10
2018-02-19T03:32:31.120Z,26.52
2018-02-19T03:34:58.652Z,29.17
2018-02-19T03:37:26.249Z,30.05
2018-02-19T03:39:53.815Z,25.45
2018-02-19T03:42:21.356Z,21.85
2018-02-19T03:44:48.942Z,29.20
2018-02-19T03:47:16.551Z,30.88
2018-02-19T03:49:44.108Z,24.58
2018-02-19T03:52:11.659Z,28.23
2018-02-19T03:54:39.258Z,21.23
2018-02-19T03:57:06.814Z,22.98
2018-02-19T03:59:34.423Z,23.83
2018-02-19T04:02:01.990Z,24.23
2018-02-19T04:04:29.552Z,23.98
2018-02-19T04:06:57.098Z,25.70
2018-02-19T04:09:24.666Z,25.60
2018-02-19T04:11:52.229Z,25.08
2018-02-19T04:14:19.810Z,18.70
2018-02-19T04:16:47.357Z,26.33
2018-02-19T04:19:14.933Z,20.62
2018-02-19T04:21:42.482Z,21.95
2018-02-19T04:24:10.060Z,22.35
2018-02-19T04:26:38.428Z,24.90
2018-02-19T04:29:05.973Z,24.42
2018-02-19T04:31:33.526Z,21.55
2018-02-19T04:34:01.088Z,26.73
2018-02-19T04:36:28.657Z,27.65
2018-02-19T04:38:56.269Z,19.65
2018-02-19T04:41:23.828Z,20.88
2018-02-19T04:43:51.380Z,21.25
2018-02-19T04:46:29.753Z,23.02
2018-02-19T04:48:57.322Z,22.02
2018-02-19T04:51:25.636Z,26.30
2018-02-19T04:53:53.202Z,22.77
2018-02-19T04:56:20.751Z,28.00
2018-02-19T04:58:48.313Z,22.02
2018-02-19T05:01:15.861Z,21.85
2018-02-19T05:03:43.429Z,23.15
2018-02-19T05:06:10.969Z,19.30
2018-02-19T05:08:38.538Z,25.80
2018-02-19T05:11:06.106Z,21.67
2018-02-19T05:13:33.701Z,17.87
2018-02-19T05:16:01.266Z,20.88
2018-02-19T05:18:29.616Z,23.35
2018-02-19T05:20:57.169Z,17.00
2018-02-19T05:23:24.740Z,11.73
2018-02-19T05:25:53.800Z,18.17
2018-02-19T05:28:21.367Z,24.85
2018-02-19T05:30:48.918Z,22.90
2018-02-19T05:33:16.452Z,19.40
2018-02-19T05:35:44.775Z,20.05
2018-02-19T05:38:12.325Z,18.33
2018-02-19T05:40:39.913Z,22.50
2018-02-19T05:43:07.493Z,15.80
2018-02-19T05:45:35.054Z,19.20
2018-02-19T05:48:02.597Z,19.20
2018-02-19T05:50:30.173Z,20.77
2018-02-19T05:52:58.484Z,23.50
2018-02-19T05:55:26.061Z,17.17
2018-02-19T05:57:53.661Z,19.75
2018-02-19T06:00:21.204Z,17.50
2018-02-19T06:02:48.785Z,14.60
2018-02-19T06:05:16.328Z,21.23
2018-02-19T06:07:43.927Z,24.23
2018-02-19T06:10:12.238Z,17.55
2018-02-19T06:12:39.806Z,19.05
2018-02-19T06:15:07.341Z,15.50
2018-02-19T06:17:34.901Z,18.33
2018-02-19T06:20:02.456Z,19.48
2018-02-19T06:22:30.022Z,19.48
2018-02-19T06:24:57.562Z,20.27
2018-02-19T06:27:25.882Z,21.60
2018-02-19T06:29:53.420Z,22.58
2018-02-19T06:32:20.968Z,22.48
2018-02-19T06:34:49.273Z,31.92
2018-02-19T06:37:16.848Z,31.58
2018-02-19T06:39:44.392Z,41.47
2018-02-19T06:42:11.928Z,42.62
2018-02-19T06:44:39.488Z,38.45
2018-02-19T06:47:07.029Z,27.60
2018-02-19T06:49:35.423Z,25.70
2018-02-19T06:52:03.745Z,25.30
2018-02-19T06:54:31.283Z,25.37
2018-02-19T06:56:58.816Z,20.73
2018-02-19T06:59:26.389Z,16.48
2018-02-19T07:01:53.985Z,18.17
2018-02-19T07:04:21.538Z,22.40
2018-02-19T07:06:49.101Z,18.08
2018-02-19T07:09:16.639Z,20.30
2018-02-19T07:11:44.206Z,18.50
2018-02-19T07:14:11.769Z,22.23
2018-02-19T07:16:39.302Z,21.23
2018-02-19T07:19:07.645Z,23.50
2018-02-19T07:21:35.192Z,20.52
2018-02-19T07:24:02.751Z,17.65
2018-02-19T07:26:31.087Z,18.55
2018-02-19T07:28:58.641Z,27.77
2018-02-19T07:31:26.185Z,21.20
2018-02-19T07:33:53.758Z,25.52
2018-02-19T07:36:21.305Z,23.35
2018-02-19T07:38:48.877Z,22.92
2018-02-19T07:41:16.523Z,22.08
2018-02-19T07:43:44.185Z,21.65
2018-02-19T07:46:11.939Z,20.80
2018-02-19T07:48:39.522Z,22.83
2018-02-19T07:51:07.121Z,21.73
2018-02-19T07:53:35.437Z,21.12
2018-02-19T07:56:02.999Z,22.90
2018-02-19T07:58:30.552Z,21.17
2018-02-19T08:00:58.805Z,21.05
2018-02-19T08:03:27.100Z,22.83
2018-02-19T08:05:54.657Z,22.52
2018-02-19T08:08:22.204Z,20.95
2018-02-19T08:10:49.918Z,19.35
2018-02-19T08:13:17.460Z,23.15
2018-02-19T08:15:45.007Z,24.20
2018-02-19T08:18:12.553Z,20.27
2018-02-19T08:20:40.108Z,19.02
2018-02-19T08:23:07.665Z,30.88
2018-02-19T08:25:35.223Z,21.60
2018-02-19T08:28:02.773Z,35.25
2018-02-19T08:30:31.088Z,27.48
2018-02-19T08:32:58.728Z,20.98
2018-02-19T08:35:26.281Z,21.55
2018-02-19T08:37:53.837Z,23.33
2018-02-19T08:40:21.418Z,28.67
2018-02-19T08:42:49.361Z,19.30
2018-02-19T08:45:16.944Z,23.87
2018-02-19T08:47:44.485Z,20.27
2018-02-19T08:50:12.821Z,24.20
2018-02-19T08:52:40.368Z,23.20
2018-02-19T08:55:07.910Z,23.35
2018-02-19T08:57:35.465Z,26.87
2018-02-19T09:00:03.032Z,22.55
2018-02-19T09:02:30.597Z,25.00
2018-02-19T09:04:58.192Z,20.52
2018-02-19T09:07:26.696Z,20.60
2018-02-19T09:09:56.540Z,20.33
2018-02-19T09:12:24.069Z,22.15
2018-02-19T09:14:52.418Z,19.52
2018-02-19T09:17:19.984Z,20.55
2018-02-19T09:19:49.313Z,16.48
2018-02-19T09:22:16.869Z,21.23
2018-02-19T09:24:44.455Z,23.12
2018-02-19T09:27:12.034Z,23.40
2018-02-19T09:29:39.599Z,22.62
2018-02-19T09:32:07.163Z,27.80
2018-02-19T09:34:34.698Z,22.30
2018-02-19T09:37:02.252Z,23.90
2018-02-19T09:39:29.776Z,19.35
2018-02-19T09:41:58.100Z,21.45
2018-02-19T09:44:25.646Z,21.52
2018-02-19T09:46:53.209Z,21.90
2018-02-19T09:49:20.750Z,23.95
2018-02-19T09:51:49.078Z,18.75
2018-02-19T09:54:16.622Z,17.73
2018-02-19T09:56:44.185Z,21.87
2018-02-19T09:59:11.761Z,20.15
2018-02-19T10:01:39.295Z,20.83
2018-02-19T10:04:06.844Z,17.00
2018-02-19T10:06:34.390Z,19.77
2018-02-19T10:09:02.710Z,21.40
2018-02-19T10:11:30.357Z,21.52
2018-02-19T10:13:58.850Z,16.37
2018-02-19T10:16:26.396Z,17.17
2018-02-19T10:18:53.944Z,19.02
2018-02-19T10:21:21.503Z,20.92
2018-02-19T10:23:49.040Z,16.12
2018-02-19T10:26:17.381Z,20.85
2018-02-19T10:28:44.940Z,19.37
2018-02-19T10:31:12.476Z,24.12
2018-02-19T10:33:40.043Z,20.85
2018-02-19T10:36:07.630Z,20.35
2018-02-19T10:38:35.192Z,19.75
2018-02-19T10:41:02.944Z,18.05
2018-02-19T10:43:30.490Z,19.35
2018-02-19T10:45:58.034Z,16.23
2018-02-19T10:48:25.614Z,18.77
2018-02-19T10:50:53.155Z,19.73
2018-02-19T10:53:20.705Z,20.25
2018-02-19T10:55:48.278Z,16.08
2018-02-19T10:58:15.814Z,19.48
2018-02-19T11:00:46.150Z,14.85
2018-02-19T11:03:13.700Z,13.90
2018-02-19T11:05:41.247Z,16.90
2018-02-19T11:08:09.570Z,19.83
2018-02-19T11:10:37.137Z,15.68
2018-02-19T11:13:04.674Z,18.60
2018-02-19T11:15:32.217Z,18.75
2018-02-19T11:17:59.908Z,19.58
2018-02-19T11:20:27.434Z,17.62
2018-02-19T11:22:55.767Z,16.65
2018-02-19T11:25:23.298Z,17.02
2018-02-19T11:27:50.929Z,18.62
2018-02-19T11:30:19.277Z,20.35
2018-02-19T11:32:46.826Z,17.52
2018-02-19T11:35:14.365Z,20.15
2018-02-19T11:37:41.916Z,19.33
2018-02-19T11:40:09.479Z,21.08
2018-02-19T11:42:37.045Z,19.62
2018-02-19T11:45:04.606Z,20.92
2018-02-19T11:47:32.160Z,20.20
2018-02-19T11:49:59.725Z,18.85
2018-02-19T11:52:27.255Z,15.40
2018-02-19T11:54:54.807Z,17.73
2018-02-19T11:57:23.115Z,17.00
2018-02-19T11:59:50.727Z,17.55
2018-02-19T12:02:18.231Z,19.37
2018-02-19T12:04:45.783Z,16.85
2018-02-19T12:07:13.345Z,19.02
2018-02-19T12:09:40.914Z,18.27
2018-02-19T12:12:08.497Z,19.55
2018-02-19T12:14:36.025Z,19.25
2018-02-19T12:17:03.833Z,21.02
2018-02-19T12:19:31.381Z,22.27
2018-02-19T12:21:58.929Z,16.77
2018-02-19T12:24:26.491Z,20.75
2018-02-19T12:26:54.053Z,15.88
2018-02-19T12:29:21.595Z,20.77
2018-02-19T12:31:49.171Z,20.90
2018-02-19T12:34:16.741Z,21.92
2018-02-19T12:36:44.285Z,19.48
2018-02-19T12:39:11.838Z,16.15
2018-02-19T12:41:39.385Z,20.23
2018-02-19T12:44:06.968Z,21.62
2018-02-19T12:46:34.525Z,16.77
2018-02-19T12:49:02.078Z,17.67
2018-02-19T12:51:29.641Z,18.48
2018-02-19T12:53:57.245Z,21.45
2018-02-19T12:56:24.820Z,23.67
2018-02-19T12:58:53.154Z,18.23
2018-02-19T13:01:20.689Z,20.10
2018-02-19T13:03:48.245Z,16.73
2018-02-19T13:06:15.797Z,25.40
2018-02-19T13:08:43.333Z,19.30
2018-02-19T13:11:11.689Z,16.62
2018-02-19T13:13:39.193Z,19.40
2018-02-19T13:16:06.757Z,17.05
2018-02-19T13:18:34.296Z,19.27
2018-02-19T13:21:02.624Z,19.62
2018-02-19T13:23:30.167Z,22.60
2018-02-19T13:25:57.732Z,22.35
2018-02-19T13:28:25.301Z,19.23
2018-02-19T13:30:52.868Z,18.58
2018-02-19T13:33:20.418Z,20.33
2018-02-19T13:35:47.989Z,24.92
2018-02-19T13:38:15.535Z,17.48
2018-02-19T13:40:43.086Z,21.48
2018-02-19T13:43:10.624Z,19.70
2018-02-19T13:45:38.216Z,15.43
2018-02-19T13:48:05.765Z,19.42
2018-02-19T13:50:33.348Z,18.75
2018-02-19T13:53:00.908Z,16.37
2018-02-19T13:55:28.461Z,18.30
2018-02-19T13:57:56.020Z,21.90
2018-02-19T14:00:23.559Z,20.45
2018-02-19T14:02:51.121Z,22.92
2018-02-19T14:05:18.647Z,16.73
2018-02-19T14:07:47.380Z,22.92
2018-02-19T14:10:14.970Z,22.62
2018-02-19T14:12:42.539Z,22.23
2018-02-19T14:15:10.077Z,24.40
2018-02-19T14:17:37.637Z,23.90
2018-02-19T14:20:05.174Z,22.30
2018-02-19T14:22:33.700Z,24.00
2018-02-19T14:25:01.245Z,23.98
2018-02-19T14:27:28.790Z,26.15
2018-02-19T14:29:56.425Z,20.45
2018-02-19T14:32:23.964Z,24.05
2018-02-19T14:34:52.301Z,28.33
2018-02-19T14:37:19.841Z,24.83
2018-02-19T14:39:47.410Z,31.75
2018-02-19T14:42:14.948Z,31.90
2018-02-19T14:44:42.505Z,22.77
2018-02-19T14:47:10.391Z,29.02
2018-02-19T14:49:38.012Z,25.83
2018-02-19T14:52:06.354Z,24.92
2018-02-19T14:54:33.914Z,30.00
2018-02-19T14:57:01.548Z,26.08
2018-02-19T14:59:29.117Z,28.70
2018-02-19T15:01:56.664Z,25.70
2018-02-19T15:04:24.226Z,26.83
2018-02-19T15:06:52.015Z,21.25
2018-02-19T15:09:19.596Z,24.42
2018-02-19T15:11:47.900Z,29.70
2018-02-19T15:14:15.497Z,27.70
2018-02-19T15:16:43.085Z,26.17
2018-02-19T15:19:11.441Z,27.58
2018-02-19T15:21:39.014Z,41.80
2018-02-19T15:24:06.622Z,26.83
2018-02-19T15:26:34.184Z,20.85
2018-02-19T15:29:01.723Z,28.73
2018-02-19T15:31:30.060Z,26.77
2018-02-19T15:33:57.629Z,27.05
2018-02-19T15:36:25.164Z,28.95
2018-02-19T15:38:52.750Z,27.13
2018-02-19T15:41:20.321Z,22.65
2018-02-19T15:43:47.930Z,24.48
2018-02-19T15:46:16.250Z,25.15
2018-02-19T15:48:43.818Z,23.87
2018-02-19T15:51:11.405Z,26.60
2018-02-19T15:53:39.723Z,26.12
2018-02-19T15:56:07.285Z,23.92
2018-02-19T15:58:34.826Z,28.02
2018-02-19T16:01:02.388Z,31.52
2018-02-19T16:03:30.091Z,27.80
2018-02-19T16:05:57.647Z,23.50
2018-02-19T16:08:25.201Z,21.27
2018-02-19T16:10:53.521Z,26.50
2018-02-19T16:13:21.118Z,26.30
2018-02-19T16:15:49.470Z,27.25
2018-02-19T16:18:17.039Z,24.15
2018-02-19T16:20:44.581Z,29.92
2018-02-19T16:23:12.136Z,25.48
2018-02-19T16:25:39.682Z,28.38
2018-02-19T16:28:07.249Z,29.67
2018-02-19T16:30:34.803Z,28.50
2018-02-19T16:33:02.371Z,29.55
2018-02-19T16:35:29.925Z,22.50
2018-02-19T16:37:57.484Z,26.98
2018-02-19T16:40:26.551Z,26.95
2018-02-19T16:42:54.113Z,31.48
2018-02-19T16:45:22.416Z,24.40
2018-02-19T16:47:50.186Z,27.83
2018-02-19T16:50:17.757Z,30.20
2018-02-19T16:52:45.326Z,26.12
2018-02-19T16:55:12.909Z,27.70
2018-02-19T16:57:41.733Z,29.37
2018-02-19T17:00:09.317Z,28.55
2018-02-19T17:02:36.864Z,28.55
2018-02-19T17:05:04.430Z,29.23
2018-02-19T17:07:32.000Z,29.75
2018-02-19T17:09:59.572Z,36.08
2018-02-19T17:12:27.130Z,28.67
2018-02-19T17:14:55.130Z,28.33
2018-02-19T17:17:22.683Z,30.35
2018-02-19T17:19:50.268Z,35.75
2018-02-19T17:22:18.619Z,36.42
2018-02-19T17:24:46.161Z,29.15
2018-02-19T17:27:13.755Z,26.20
2018-02-19T17:29:41.334Z,25.27
2018-02-19T17:32:09.673Z,28.55
2018-02-19T17:34:37.210Z,26.73
2018-02-19T17:37:04.773Z,34.28
2018-02-19T17:39:32.368Z,32.65
2018-02-19T17:41:59.893Z,32.05
2018-02-19T17:44:27.440Z,31.58
2018-02-19T17:46:54.979Z,35.97
2018-02-19T17:49:23.307Z,38.05
2018-02-19T17:51:50.854Z,38.00
2018-02-19T17:54:18.652Z,33.97
2018-02-19T17:56:46.993Z,28.38
2018-02-19T17:59:14.571Z,38.80
2018-02-19T18:01:42.119Z,38.88
2018-02-19T18:04:09.697Z,34.20
2018-02-19T18:06:41.375Z,39.00
2018-02-19T18:09:08.951Z,37.10
2018-02-19T18:11:37.284Z,37.28
2018-02-19T18:14:04.849Z,42.10
2018-02-19T18:16:33.177Z,37.25
2018-02-19T18:19:00.739Z,37.67
2018-02-19T18:21:28.297Z,34.60
2018-02-19T18:23:55.838Z,35.10
2018-02-19T18:26:24.182Z,38.53
2018-02-19T18:28:51.749Z,41.20
2018-02-19T18:31:19.325Z,40.58
2018-02-19T18:33:46.870Z,36.97
2018-02-19T18:36:14.409Z,36.08
2018-02-19T18:38:41.985Z,40.50
2018-02-19T18:41:09.553Z,38.38
2018-02-19T18:43:37.134Z,42.03
2018-02-19T18:46:05.453Z,44.90
2018-02-19T18:48:33.020Z,38.47
2018-02-19T18:51:00.585Z,42.35
2018-02-19T18:53:28.161Z,40.67
2018-02-19T18:55:55.716Z,44.03
2018-02-19T18:58:23.279Z,38.10
2018-02-19T19:00:50.832Z,36.42
2018-02-19T19:03:18.413Z,41.10
2018-02-19T19:05:45.977Z,37.63
2018-02-19T19:08:25.490Z,40.45
2018-02-19T19:10:54.835Z,39.10
2018-02-19T19:13:23.137Z,35.63
2018-02-19T19:15:50.716Z,42.85
2018-02-19T19:18:18.279Z,42.72
2018-02-19T19:20:45.990Z,40.00
2018-02-19T19:23:14.338Z,46.75
2018-02-19T19:25:41.925Z,36.50
2018-02-19T19:28:10.252Z,41.67
2018-02-19T19:30:37.813Z,34.22
2018-02-19T19:33:05.352Z,42.80
2018-02-19T19:35:32.950Z,37.03
2018-02-19T19:38:00.528Z,38.92
2018-02-19T19:40:28.099Z,43.08
2018-02-19T19:42:56.426Z,43.95
2018-02-19T19:45:24.001Z,43.55
2018-02-19T19:47:51.543Z,46.28
2018-02-19T19:50:19.125Z,42.65
2018-02-19T19:52:47.426Z,36.70
2018-02-19T19:55:15.014Z,43.53
2018-02-19T19:57:42.598Z,46.72
2018-02-19T20:00:10.146Z,41.65
2018-02-19T20:02:37.739Z,34.95
2018-02-19T20:05:05.297Z,46.97
2018-02-19T20:07:32.878Z,43.85
2018-02-19T20:10:01.308Z,40.12
2018-02-19T20:12:28.866Z,41.65
2018-02-19T20:14:56.434Z,41.22
2018-02-19T20:17:24.016Z,41.63
2018-02-19T20:19:52.318Z,39.10
2018-02-19T20:22:19.881Z,46.20
2018-02-19T20:24:47.421Z,40.00
2018-02-19T20:27:15.788Z,84.72
2018-02-19T20:29:44.124Z,47.13
2018-02-19T20:32:12.128Z,45.92
2018-02-19T20:34:41.216Z,41.47
2018-02-19T20:37:08.756Z,46.05
2018-02-19T20:39:36.339Z,39.63
2018-02-19T20:42:03.887Z,47.67
2018-02-19T20:44:31.436Z,38.60
2018-02-19T20:46:59.025Z,42.33
2018-02-19T20:49:26.654Z,45.05
2018-02-19T20:51:54.205Z,48.28
2018-02-19T20:54:21.790Z,46.60
2018-02-19T20:56:49.329Z,38.25
2018-02-19T20:59:16.868Z,43.90
2018-02-19T21:01:44.449Z,46.45
2018-02-19T21:04:11.997Z,53.10
2018-02-19T21:06:39.574Z,45.10
2018-02-19T21:09:07.122Z,41.00
2018-02-19T21:11:34.685Z,51.17
2018-02-19T21:14:02.284Z,50.92
2018-02-19T21:16:30.629Z,43.75
2018-02-19T21:18:58.186Z,42.72
2018-02-19T21:21:25.769Z,55.70
2018-02-19T21:23:53.334Z,47.50
2018-02-19T21:26:20.895Z,47.70
2018-02-19T21:28:48.465Z,53.50
2018-02-19T21:31:16.050Z,48.05
2018-02-19T21:33:43.639Z,44.95
2018-02-19T21:36:11.209Z,49.78
2018-02-19T21:38:38.797Z,46.65
2018-02-19T21:41:06.373Z,42.35
2018-02-19T21:43:33.939Z,52.67
2018-02-19T21:46:02.258Z,44.15
2018-02-19T21:48:30.773Z,42.78
2018-02-19T21:50:58.380Z,46.15
2018-02-19T21:53:26.684Z,49.13
2018-02-19T21:55:54.316Z,43.38
2018-02-19T21:58:22.628Z,39.63
2018-02-19T22:00:50.214Z,42.53
2018-02-19T22:03:17.762Z,54.17
2018-02-19T22:05:45.309Z,41.40
2018-02-19T22:08:12.877Z,45.47
2018-02-19T22:10:40.467Z,45.92
2018-02-19T22:13:08.798Z,51.67
2018-02-19T22:15:36.329Z,39.88
2018-02-19T22:18:04.663Z,42.33
2018-02-19T22:20:32.207Z,45.78
2018-02-19T22:22:59.789Z,40.67
2018-02-19T22:25:27.324Z,41.85
2018-02-19T22:27:54.866Z,38.78
2018-02-19T22:30:22.428Z,41.35
2018-02-19T22:32:49.961Z,39.25
2018-02-19T22:35:18.338Z,41.42
2018-02-19T22:37:45.858Z,39.63
2018-02-19T22:40:13.435Z,47.88
2018-02-19T22:42:40.984Z,40.97
2018-02-19T22:45:08.540Z,44.28
2018-02-19T22:47:36.876Z,36.45
2018-02-19T22:50:04.456Z,33.88
2018-02-19T22:52:31.994Z,38.25
2018-02-19T22:54:59.529Z,39.65
2018-02-19T22:57:27.088Z,43.65
2018-02-19T22:59:55.399Z,43.95
2018-02-19T23:02:22.962Z,42.08
2018-02-19T23:04:50.537Z,41.95
2018-02-19T23:07:18.092Z,41.70
2018-02-19T23:09:45.632Z,39.83
2018-02-19T23:12:13.193Z,43.08
2018-02-19T23:14:40.745Z,40.95
2018-02-19T23:17:09.082Z,41.58
2018-02-19T23:19:36.652Z,42.13
2018-02-19T23:22:04.222Z,46.25
2018-02-19T23:24:32.533Z,47.47
2018-02-19T23:27:00.090Z,51.47
2018-02-19T23:29:27.637Z,39.22
2018-02-19T23:31:55.977Z,44.92
2018-02-19T23:34:24.447Z,41.65
2018-02-19T23:36:52.017Z,49.55
2018-02-19T23:39:19.576Z,42.62
2018-02-19T23:41:47.128Z,43.58
2018-02-19T23:44:14.706Z,41.25
2018-02-19T23:46:42.260Z,46.95
2018-02-19T23:49:09.843Z,47.70
2018-02-19T23:51:38.145Z,46.92
2018-02-19T23:54:05.705Z,51.60
2018-02-19T23:56:33.270Z,46.58
2018-02-19T23:59:00.833Z,45.15
